Amargosa Valley, Nevada Weather observations

Data are for observation ending at time listed.
 Day   Time    Ave.   Ave.  Ave.  Vector   Max.   Stn.    Total    Solar   Ave.  
  of    of     Air    Rel.  Wind   Wind    Wind   Baro.  Precip.   Rad.    Soil  
Year   Day     Temp.  Hum.  Speed  Dir.    Gust   Pres.                    Temp. 
2016   (PST)    F      %     mph   deg.    mph     mb.     in.     W/m2     F   
------------------------------------------------------------------------------
 337   18:30   44.0    20    1.4   329      3.1   935.2    0.00       0    55.3
 337   18:40   43.0    20    1.4   328      2.9   935.4    0.00       0    55.3
 337   18:50   42.9    20    1.6   324      3.0   935.6    0.00       0    55.2
 337   19:00   42.9    20    1.4   328      2.9   935.7    0.00       0    55.1
 337   19:10   42.3    20    1.6   329      3.4   935.8    0.00       0    55.1
 337   19:20   41.8    21    2.1   328      3.7   935.9    0.00       0    55.0
 337   19:30   41.7    21    2.1   331      4.2   936.0    0.00       0    54.9
 337   19:40   41.2    22    2.7   323      5.5   936.1    0.00       0    54.8
 337   19:50   40.9    22    2.9   320      6.9   936.3    0.00       0    54.8
 337   20:00   41.4    22    4.5   316      8.0   936.5    0.00       0    54.7
 337   20:10   42.1    22    3.8   319      6.9   936.8    0.00       0    54.6
 337   20:20   42.2    22    4.1   320      8.6   937.0    0.00       0    54.5
 337   20:30   41.6    23    4.2   316      7.0   937.2    0.00       0    54.4
 337   20:40   41.3    24    4.0   316      6.8   937.1    0.00       0    54.3
 337   20:50   41.6    23    6.1   304     10.4   937.2    0.00       0    54.2
 337   21:00   41.7    23    5.4   304     11.1   937.3    0.00       0    54.2
 337   21:10   41.1    24    5.2   310     11.9   937.2    0.00       0    54.1
 337   21:20   41.1    24    4.8   314      9.9   937.2    0.00       0    54.0
 337   21:30   40.7    24    3.1   322      7.4   937.2    0.00       0    53.9
 337   21:40   39.7    25    1.0   324      3.1   937.3    0.00       0    53.8
 337   21:50   38.8    26    1.1   330      2.3   937.3    0.00       0    53.8
 337   22:00   38.1    26    0.5   344      1.7   937.2    0.00       0    53.7
 337   22:10   38.6    26    1.1   346      3.8   937.2    0.00       0    53.6
 337   22:20   39.4    26    1.4   334      3.0   937.2    0.00       0    53.5
 337   22:30   39.0    26    1.3   336      3.0   937.4    0.00       0    53.4
 337   22:40   38.7    27    1.0   335      2.9   937.5    0.00       0    53.3
 337   22:50   38.4    28    0.6   333      2.0   937.6    0.00       0    53.2
 337   23:00   38.1    28    0.1   346      0.8   937.5    0.00       0    53.2
 337   23:10   37.1    29    0.2   334      1.5   937.5    0.00       0    53.1
 337   23:20   36.4    30    1.1   323      2.6   937.3    0.00       0    53.0
 337   23:30   36.4    30    0.8   317      3.1   937.4    0.00       0    52.9
 337   23:40   37.0    30    0.3   310      2.6   937.5    0.00       0    52.8
 337   23:50   36.7    30    0.3   320      1.2   937.4    0.00       0    52.7
 338    0:00   36.5    30    1.5   321      4.8   937.4    0.00       0    52.6
 338    0:10   37.1    30    2.0   322      4.8   937.2    0.00       0    52.5
 338    0:20   37.1    30    1.3   328      2.4   937.1    0.00       0    52.4
 338    0:30   36.8    30    1.5   321      3.1   937.0    0.00       0    52.4
 338    0:40   36.5    31    3.1   307      8.2   937.0    0.00       0    52.3
 338    0:50   36.5    31    6.6   306     11.5   937.2    0.00       0    52.2
 338    1:00   37.4    30    4.3   314      9.0   937.3    0.00       0    52.1
 338    1:10   36.5    31    4.5   316      6.9   937.3    0.00       0    52.0
 338    1:20   36.5    31    3.5   320      8.2   937.3    0.00       0    51.9
 338    1:30   36.5    31    2.3   322      5.8   937.4    0.00       0    51.9
 338    1:40   36.6    31    1.7   330      3.3   937.3    0.00       0    51.8
 338    1:50   35.7    32    1.8   325      2.9   937.3    0.00       0    51.7
 338    2:00   34.6    33    1.6   326      3.1   937.3    0.00       0    51.6
 338    2:10   34.6    33    1.6   324      3.1   937.5    0.00       0    51.5
 338    2:20   35.5    32    2.6   319      6.4   937.5    0.00       0    51.4
 338    2:30   36.4    30    3.7   317      6.8   937.5    0.00       0    51.4
 338    2:40   36.4    30    6.2   308     12.0   937.6    0.00       0    51.3
 338    2:50   36.4    30    5.6   311     11.8   937.5    0.00       0    51.2
 338    3:00   35.9    31    5.5   312      8.6   937.5    0.00       0    51.1
 338    3:10   36.1    31    3.1   323      6.9   937.5    0.00       0    51.0
 338    3:20   36.3    30    2.8   326      5.7   937.5    0.00       0    51.0
 338    3:30   35.5    31    1.5   318      4.1   937.4    0.00       0    50.9
 338    3:40   35.4    31    1.6   328      3.9   937.3    0.00       0    50.8
 338    3:50   35.5    31    2.5   319      5.6   937.5    0.00       0    50.7
 338    4:00   35.8    30    6.6   309     12.3   937.6    0.00       0    50.6
 338    4:10   36.0    30    6.6   306     12.3   937.3    0.00       0    50.6
 338    4:20   35.9    30    5.0   315     14.4   937.1    0.00       0    50.5
 338    4:30   37.2    28    7.3   314     14.2   937.0    0.00       0    50.4
 338    4:40   37.0    29    7.8   308     13.4   936.9    0.00       0    50.4
 338    4:50   37.5    28   10.3   306     16.9   936.8    0.00       0    50.3
 338    5:00   37.1    28    6.1   313     15.8   936.8    0.00       0    50.2
 338    5:10   36.4    29    1.4   330      5.0   936.6    0.00       0    50.2
 338    5:20   35.3    30    1.6   322      4.5   936.5    0.00       0    50.1
 338    5:30   35.2    30    3.8   316      8.6   936.5    0.00       0    50.0
 338    5:40   35.3    30    2.2   321      4.5   936.5    0.00       0    49.9
 338    5:50   35.2    30    3.7   316      5.6   936.6    0.00       0    49.9
 338    6:00   35.2    30    3.4   318      6.9   936.7    0.00       0    49.8
 338    6:10   36.0    28    1.9   321      5.0   936.9    0.00       0    49.7
 338    6:20   34.6    30    2.1   318      5.7   937.0    0.00       0    49.7
 338    6:30   35.3    29    3.8   316      7.7   937.1    0.00       0    49.6
 338    6:40   34.0    31    3.2   318      6.0   937.1    0.00       1    49.6
 338    6:50   33.1    33    4.0   310     10.2   937.1    0.00       6    49.5
 338    7:00   33.5    33    3.6   314      9.6   937.1    0.00      21    49.4
 338    7:10   33.5    33    3.1   314      6.1   937.2    0.00      46    49.4
 338    7:20   33.7    33    5.8   308      9.8   937.3    0.00      71    49.3
 338    7:30   35.1    32    3.4   318      6.8   937.2    0.00     105    49.2
 338    7:40   36.4    31    2.4   319      5.7   937.3    0.00     141    49.1
 338    7:50   37.0    30    4.2   315      7.9   937.4    0.00     168    49.0
 338    8:00   38.1    29    2.9   318      6.6   937.4    0.00     195    49.0
 338    8:10   38.8    28    3.9   314      6.6   937.6    0.00     223    48.9
 338    8:20   39.5    27    3.9   318      6.9   937.7    0.00     130    48.9
 338    8:30   41.2    25    2.2   316      6.4   937.8    0.00     118    48.8
 338    8:40   42.2    23    2.5   318      6.3   937.7    0.00     300    48.8
 338    8:50   43.5    22    3.1   316      7.3   937.7    0.00     325    48.8
 338    9:00   43.7    22    4.8   308      9.1   937.8    0.00     349    48.7
 338    9:10   44.4    20    3.5   315      7.9   938.0    0.00     372    48.7
 338    9:20   46.0    19    1.8   322      6.1   937.9    0.00     395    48.7
 338    9:30   46.3    19    2.5   320      6.2   938.1    0.00     416    48.6
 338    9:40   47.1    18    1.4   325      5.3   937.8    0.00     436    48.6
 338    9:50   48.1    17    0.8   340      5.0   937.8    0.00     455    48.6
 338   10:00   49.0    16    1.0   336      4.7   937.8    0.00     472    48.6
 338   10:10   49.8    15    0.8     7      4.2   937.7    0.00     488    48.7
 338   10:20   50.3    14    1.5    14      6.4   937.6    0.00     502    48.7
 338   10:30   50.3    14    1.3    14      5.9   937.6    0.00     515    48.8
 338   10:40   50.7    14    1.3    24      5.2   937.5    0.00     521    48.8
 338   10:50   51.8    13    1.1    28      5.6   937.3    0.00     528    48.9
 338   11:00   51.7    13    1.7    22      5.1   937.0    0.00     540    49.0
 338   11:10   52.7    13    1.3     1      4.7   936.9    0.00     550    49.1
 338   11:20   52.7    13    1.6    19      4.2   936.8    0.00     555    49.2
 338   11:30   53.1    13    1.0    16      3.0   936.8    0.00     556    49.3
 338   11:40   53.8    13    1.6    62      5.3   936.7    0.00     560    49.5
 338   11:50   54.1    13    2.2    61      5.8   936.4    0.00     547    49.6
 338   12:00   54.9    13    1.6    48      4.2   936.3    0.00     536    49.8
 338   12:10   55.4    12    1.4    24      4.8   936.1    0.00     534    49.9
 338   12:20   56.1    12    0.9    15      3.4   935.9    0.00     526    50.1
 338   12:30   56.8    12    1.7   120      4.6   935.8    0.00     512    50.3
 338   12:40   57.6    12    1.0    73      4.5   935.6    0.00     507    50.5
 338   12:50   58.9    11    1.0   307      3.1   935.5    0.00     500    50.7
 338   13:00   58.8    11    1.3   288      4.4   935.4    0.00     492    50.9
 338   13:10   58.4    11    2.4   311      6.9   935.2    0.00     478    51.2
 338   13:20   58.2    11    2.4   310      8.0   935.1    0.00     459    51.4
 338   13:30   59.6    11    1.4   264      4.2   935.0    0.00     443    51.6
 338   13:40   59.8    11    1.1   244      5.7   934.9    0.00     425    51.9
 338   13:50   60.3    11    1.5   236      4.5   934.9    0.00     392    52.1
 338   14:00   60.2    11    1.3   245      4.7   934.8    0.00     381    52.4
 338   14:10   60.5    11    1.3   215      4.2   934.7    0.00     360    52.6
 338   14:20   61.2    11    1.2   153      3.4   934.7    0.00     333    52.9
 338   14:30   61.9    11    2.1   176      6.5   934.6    0.00     311    53.1
 338   14:40   61.0    11    2.1   198      6.4   934.6    0.00     285    53.3
 338   14:50   61.0    11    3.0   164      5.0   934.6    0.00     254    53.6
 338   15:00   61.2    11    2.5   175      4.5   934.6    0.00     224    53.8
 338   15:10   61.2    11    2.9   152      6.6   934.6    0.00     202    54.0
 338   15:20   61.3    11    2.0   162      4.3   934.5    0.00     170    54.3
 338   15:30   61.0    11    2.6   177      4.4   934.6    0.00     149    54.5
 338   15:40   61.3    12    1.0   191      2.7   934.6    0.00     128    54.7
 338   15:50   61.8    11    0.2   204      1.6   934.5    0.00      97    54.9
 338   16:00   61.4    12    0.3   188      1.1   934.5    0.00      65    55.1
 338   16:10   60.4    12    1.2   192      2.2   934.3    0.00      35    55.2
 338   16:20   58.5    13    0.4   181      1.2   934.2    0.00      11    55.3
 338   16:30   57.5    13    0.2   182      1.2   934.2    0.00       6    55.5
 338   16:40   57.0    13    1.0   205      2.6   934.1    0.00       3    55.6
 338   16:50   56.9    13    1.5   225      3.2   934.1    0.00       0    55.7
 338   17:00   55.1    15    0.3   294      2.6   934.1    0.00       0    55.8
 338   17:10   55.3    14    1.0   304      2.3   934.0    0.00       0    55.8
 338   17:20   53.4    15    0.1   307      0.9   934.1    0.00       0    55.9
 338   17:30   52.4    15    1.0   313      3.5   934.1    0.00       0    55.9
 338   17:40   51.4    16    0.1   318      0.7   934.1    0.00       0    56.0
 338   17:50   50.7    16    0.1   318      1.3   934.2    0.00       0    56.0
 338   18:00   49.6    16    0.0     0      0.0   934.1    0.00       0    56.0
 338   18:10   50.2    16    0.0     0      0.0   934.1    0.00       0    56.0
 338   18:20   50.2    17    0.4   327      3.1   934.1    0.00       0    56.0

Return to Amargosa Valley, Nevada graphs page.


Western Regional Climate Center,wrcc@dri.edu